Time;durP1;ratioP1;P1;durP2;ratioP2;P2;SDS_P1;SDS_P2;PMS_P1;PMS_P2;Temp;Humidity;BMP_temperature;BMP_pressure;BME280_temperature;BME280_humidity;BME280_pressure;Samples;Min_cycle;Max_cycle;Signal;HPM_P1;HPM_P2
2023/09/23 00:00:24;;;;;;;2.35;1.30;;;;;;;;;;5037474;28;20029;-21
2023/09/23 00:02:50;;;;;;;3.53;1.23;;;;;;;;;;5037301;28;20025;-18
2023/09/23 00:05:16;;;;;;;2.40;1.20;;;;;;;;;;5037305;28;20050;-20
2023/09/23 00:07:43;;;;;;;1.30;0.70;;;;;;;;;;5038095;28;20056;-19
2023/09/23 00:10:10;;;;;;;3.85;1.27;;;;;;;;;;5037322;28;20506;-22
2023/09/23 00:12:37;;;;;;;0.77;0.77;;;;;;;;;;5037209;28;20364;-20
2023/09/23 00:15:05;;;;;;;2.70;1.20;;;;;;;;;;5037490;28;20026;-20
2023/09/23 00:17:31;;;;;;;1.95;1.25;;;;;;;;;;5037463;28;20440;-18
2023/09/23 00:19:57;;;;;;;2.92;1.00;;;;;;;;;;5037278;28;20034;-18
2023/09/23 00:22:23;;;;;;;2.15;1.00;;;;;;;;;;5037281;28;20445;-19
2023/09/23 00:24:50;;;;;;;1.45;1.00;;;;;;;;;;5037282;28;20326;-17
2023/09/23 00:27:17;;;;;;;3.65;1.05;;;;;;;;;;5037294;28;20052;-21
2023/09/23 00:29:44;;;;;;;2.67;1.00;;;;;;;;;;5036793;28;20025;-17
2023/09/23 00:32:12;;;;;;;5.13;1.27;;;;;;;;;;5036800;28;20083;-22
2023/09/23 00:34:39;;;;;;;2.00;1.30;;;;;;;;;;5037405;28;20025;-22
2023/09/23 00:37:07;;;;;;;1.08;1.00;;;;;;;;;;5036776;28;20021;-22
2023/09/23 00:39:42;;;;;;;3.92;1.00;;;;;;;;;;5037044;28;20021;-18
2023/09/23 00:42:12;;;;;;;2.20;1.13;;;;;;;;;;5036967;28;20037;-23
2023/09/23 00:44:41;;;;;;;1.85;0.80;;;;;;;;;;5037175;28;20014;-20
2023/09/23 00:47:13;;;;;;;1.98;1.00;;;;;;;;;;5037153;28;20025;-20
2023/09/23 00:49:44;;;;;;;1.48;0.90;;;;;;;;;;5036818;28;20057;-19
2023/09/23 00:52:13;;;;;;;2.45;1.33;;;;;;;;;;5036440;28;20029;-20
2023/09/23 00:54:46;;;;;;;1.80;1.10;;;;;;;;;;5036756;28;20022;-21
2023/09/23 00:57:13;;;;;;;2.25;0.90;;;;;;;;;;5037065;28;20025;-20
2023/09/23 00:59:40;;;;;;;1.40;1.30;;;;;;;;;;5036274;28;20075;-18
2023/09/23 01:02:06;;;;;;;5.05;1.20;;;;;;;;;;5036488;28;20018;-19
2023/09/23 01:04:33;;;;;;;3.97;1.23;;;;;;;;;;5036164;28;20080;-20
2023/09/23 01:07:02;;;;;;;1.58;1.02;;;;;;;;;;5036527;28;20027;-18
2023/09/23 01:09:31;;;;;;;3.40;1.88;;;;;;;;;;5036502;28;20329;-22
2023/09/23 01:11:57;;;;;;;1.45;1.13;;;;;;;;;;5035990;28;20025;-21
2023/09/23 01:14:23;;;;;;;3.58;1.10;;;;;;;;;;5036085;28;20025;-20
2023/09/23 01:16:51;;;;;;;1.40;0.90;;;;;;;;;;5036607;28;20061;-21
2023/09/23 01:19:17;;;;;;;1.35;1.15;;;;;;;;;;5035952;28;20026;-20
2023/09/23 01:21:45;;;;;;;2.30;1.10;;;;;;;;;;5036193;28;20029;-21
2023/09/23 01:24:11;;;;;;;2.33;0.95;;;;;;;;;;5035827;28;20101;-21
2023/09/23 01:26:39;;;;;;;1.27;0.90;;;;;;;;;;5018476;28;20372;-21
2023/09/23 01:29:07;;;;;;;2.83;1.20;;;;;;;;;;5036069;28;20033;-22
2023/09/23 01:31:35;;;;;;;1.70;1.23;;;;;;;;;;5035802;28;20032;-18
2023/09/23 01:34:03;;;;;;;2.17;1.10;;;;;;;;;;5035679;28;20028;-18
2023/09/23 01:36:29;;;;;;;2.85;1.15;;;;;;;;;;5036211;28;20017;-20
2023/09/23 01:38:55;;;;;;;3.83;1.10;;;;;;;;;;5035641;28;20034;-23
2023/09/23 01:41:21;;;;;;;2.13;1.27;;;;;;;;;;5035063;28;20100;-18
2023/09/23 01:43:48;;;;;;;6.35;2.58;;;;;;;;;;5035503;28;20025;-19
2023/09/23 01:46:15;;;;;;;1.85;0.95;;;;;;;;;;5035747;28;20416;-18
2023/09/23 01:48:41;;;;;;;3.88;1.13;;;;;;;;;;5035444;28;20033;-20
2023/09/23 01:51:10;;;;;;;2.33;1.23;;;;;;;;;;5035670;28;20021;-21
2023/09/23 01:53:36;;;;;;;7.20;2.72;;;;;;;;;;5035322;28;20033;-21
2023/09/23 01:56:02;;;;;;;1.30;1.20;;;;;;;;;;5035846;28;20029;-20
2023/09/23 01:58:28;;;;;;;2.28;1.67;;;;;;;;;;5035556;28;20025;-21
2023/09/23 02:00:55;;;;;;;1.60;1.10;;;;;;;;;;5035935;28;20021;-19
2023/09/23 02:03:23;;;;;;;2.25;1.52;;;;;;;;;;5034964;28;20026;-21
2023/09/23 02:05:49;;;;;;;2.85;1.13;;;;;;;;;;5035481;28;20398;-18
2023/09/23 02:08:15;;;;;;;2.20;0.95;;;;;;;;;;5035357;28;20030;-20
2023/09/23 02:10:48;;;;;;;1.75;1.10;;;;;;;;;;5035093;28;20400;-20
2023/09/23 02:13:14;;;;;;;4.50;1.42;;;;;;;;;;5034952;28;20041;-21
2023/09/23 02:15:40;;;;;;;1.42;0.90;;;;;;;;;;5035021;28;20061;-21
2023/09/23 02:18:06;;;;;;;2.05;0.90;;;;;;;;;;5034884;28;20110;-23
2023/09/23 02:20:34;;;;;;;0.95;0.80;;;;;;;;;;5035123;28;20030;-20
2023/09/23 02:23:00;;;;;;;1.13;1.02;;;;;;;;;;5035043;28;20087;-20
2023/09/23 02:25:27;;;;;;;1.35;1.25;;;;;;;;;;5034863;28;20452;-20
2023/09/23 02:27:55;;;;;;;1.25;0.95;;;;;;;;;;5034817;28;20101;-21
2023/09/23 02:30:21;;;;;;;1.30;1.20;;;;;;;;;;5035009;28;20038;-19
2023/09/23 02:32:48;;;;;;;3.05;1.10;;;;;;;;;;5034562;28;20036;-21
2023/09/23 02:35:15;;;;;;;0.95;0.95;;;;;;;;;;5034982;28;20040;-26
2023/09/23 02:37:42;;;;;;;1.17;1.08;;;;;;;;;;5034965;28;20352;-21
2023/09/23 02:40:12;;;;;;;0.75;0.75;;;;;;;;;;5034592;28;20034;-20
2023/09/23 02:42:39;;;;;;;1.67;1.30;;;;;;;;;;5034943;28;20021;-23
2023/09/23 02:45:06;;;;;;;2.38;1.58;;;;;;;;;;5034466;28;20060;-19
2023/09/23 02:47:33;;;;;;;1.23;0.85;;;;;;;;;;5034581;28;20491;-19
2023/09/23 02:49:59;;;;;;;2.45;1.20;;;;;;;;;;5034852;28;20456;-20
2023/09/23 02:52:25;;;;;;;1.70;1.00;;;;;;;;;;5034827;28;20041;-19
2023/09/23 02:54:54;;;;;;;2.00;1.00;;;;;;;;;;5034770;28;20034;-20
2023/09/23 02:57:20;;;;;;;2.80;1.30;;;;;;;;;;5034476;28;20022;-22
2023/09/23 02:59:53;;;;;;;1.10;1.00;;;;;;;;;;5034662;28;20048;-21
2023/09/23 03:02:24;;;;;;;1.65;1.00;;;;;;;;;;5034345;28;20096;-20
2023/09/23 03:04:58;;;;;;;1.05;0.90;;;;;;;;;;5034392;28;20103;-19
2023/09/23 03:07:27;;;;;;;0.93;0.70;;;;;;;;;;5034666;28;20068;-21
2023/09/23 03:09:55;;;;;;;1.50;1.25;;;;;;;;;;5034572;28;20030;-18
2023/09/23 03:12:23;;;;;;;1.17;0.90;;;;;;;;;;5034232;28;20491;-20
2023/09/23 03:14:52;;;;;;;1.10;0.85;;;;;;;;;;5034338;28;20029;-19
2023/09/23 03:17:21;;;;;;;1.73;1.05;;;;;;;;;;5034528;28;20334;-18
2023/09/23 03:19:51;;;;;;;3.20;1.05;;;;;;;;;;5034366;28;20040;-19
2023/09/23 03:22:21;;;;;;;1.83;1.25;;;;;;;;;;5034170;28;20091;-20
2023/09/23 03:24:48;;;;;;;1.95;1.30;;;;;;;;;;5035090;28;20449;-20
2023/09/23 03:27:15;;;;;;;1.88;1.10;;;;;;;;;;5034159;28;20132;-23
2023/09/23 03:29:41;;;;;;;1.15;1.05;;;;;;;;;;5034416;28;20108;-21
2023/09/23 03:32:07;;;;;;;1.08;0.85;;;;;;;;;;5016744;28;20413;-20
2023/09/23 03:34:37;;;;;;;1.70;1.20;;;;;;;;;;5034193;28;20040;-20
2023/09/23 03:37:04;;;;;;;2.60;1.33;;;;;;;;;;5016782;28;20060;-21
2023/09/23 03:39:30;;;;;;;1.30;0.90;;;;;;;;;;5034086;28;20031;-19
2023/09/23 03:41:56;;;;;;;1.30;0.95;;;;;;;;;;5033905;28;20030;-18
2023/09/23 03:44:22;;;;;;;2.40;1.30;;;;;;;;;;5033984;28;20021;-22
2023/09/23 03:46:52;;;;;;;2.33;1.20;;;;;;;;;;5034336;28;20021;-22
2023/09/23 03:49:18;;;;;;;2.42;1.35;;;;;;;;;;5034010;28;20029;-19
2023/09/23 03:51:45;;;;;;;1.27;0.93;;;;;;;;;;5033944;28;20439;-21
2023/09/23 03:54:11;;;;;;;1.83;1.30;;;;;;;;;;5033908;28;20104;-20
2023/09/23 03:56:40;;;;;;;1.23;1.08;;;;;;;;;;5033899;28;20109;-21
2023/09/23 03:59:06;;;;;;;2.88;1.20;;;;;;;;;;5034194;28;20021;-21
2023/09/23 04:01:39;;;;;;;1.23;1.13;;;;;;;;;;5033860;28;20075;-17
2023/09/23 04:04:07;;;;;;;1.98;1.30;;;;;;;;;;5025760;28;20506;-19
2023/09/23 04:06:34;;;;;;;2.08;1.13;;;;;;;;;;5057398;28;20036;-19
2023/09/23 04:09:00;;;;;;;1.50;0.90;;;;;;;;;;5040306;28;20035;-18
2023/09/23 04:11:27;;;;;;;1.77;1.20;;;;;;;;;;5057478;28;20104;-17
2023/09/23 04:13:56;;;;;;;1.20;1.00;;;;;;;;;;5057070;28;20108;-19
2023/09/23 04:16:22;;;;;;;1.05;0.90;;;;;;;;;;5057184;28;20082;-19
2023/09/23 04:18:51;;;;;;;1.30;0.90;;;;;;;;;;5057397;28;20021;-21
2023/09/23 04:21:17;;;;;;;1.63;0.73;;;;;;;;;;5057000;28;20025;-21
2023/09/23 04:23:43;;;;;;;1.33;1.00;;;;;;;;;;5057069;28;20021;-20
2023/09/23 04:26:12;;;;;;;1.23;1.13;;;;;;;;;;5057269;28;20036;-22
2023/09/23 04:28:39;;;;;;;1.00;0.90;;;;;;;;;;5056942;28;20036;-19
2023/09/23 04:31:06;;;;;;;2.55;1.25;;;;;;;;;;5056879;28;20025;-20
2023/09/23 04:33:32;;;;;;;4.40;1.10;;;;;;;;;;5056821;28;20482;-20
2023/09/23 04:35:59;;;;;;;3.22;1.00;;;;;;;;;;5057060;28;20025;-18
2023/09/23 04:38:25;;;;;;;8.40;1.55;;;;;;;;;;5056992;28;20435;-21
2023/09/23 04:40:54;;;;;;;1.70;1.13;;;;;;;;;;5056680;28;20029;-19
2023/09/23 04:43:20;;;;;;;1.35;0.95;;;;;;;;;;5056544;28;20021;-19
2023/09/23 04:45:48;;;;;;;1.20;0.90;;;;;;;;;;5056911;28;20021;-23
2023/09/23 04:48:14;;;;;;;1.95;1.13;;;;;;;;;;5056899;28;20452;-17
2023/09/23 04:50:41;;;;;;;1.45;0.80;;;;;;;;;;5056548;28;20052;-19
2023/09/23 04:53:07;;;;;;;3.00;1.15;;;;;;;;;;5056448;28;20024;-19
2023/09/23 04:55:34;;;;;;;2.35;1.17;;;;;;;;;;5056766;28;20021;-18
2023/09/23 04:58:00;;;;;;;1.35;0.88;;;;;;;;;;5056379;28;20040;-19
2023/09/23 05:00:26;;;;;;;1.85;1.10;;;;;;;;;;5056585;28;20399;-22
2023/09/23 05:02:53;;;;;;;1.80;1.20;;;;;;;;;;5056438;28;20124;-24
2023/09/23 05:05:20;;;;;;;1.00;0.80;;;;;;;;;;5056094;28;20045;-20
2023/09/23 05:07:46;;;;;;;0.82;0.80;;;;;;;;;;5056452;28;20021;-22
2023/09/23 05:10:13;;;;;;;2.60;1.17;;;;;;;;;;5056196;28;20029;-20
2023/09/23 05:12:44;;;;;;;1.20;0.95;;;;;;;;;;5056050;28;20047;-19
2023/09/23 05:15:14;;;;;;;1.25;0.80;;;;;;;;;;5055200;28;20059;-19
2023/09/23 05:17:43;;;;;;;1.27;0.93;;;;;;;;;;5056363;28;20033;-19
2023/09/23 05:20:15;;;;;;;1.63;1.02;;;;;;;;;;5056174;28;20048;-19
2023/09/23 05:22:41;;;;;;;1.98;1.10;;;;;;;;;;5055837;28;20035;-22
2023/09/23 05:25:08;;;;;;;1.75;0.88;;;;;;;;;;5055866;28;20463;-18
2023/09/23 05:27:34;;;;;;;0.90;0.77;;;;;;;;;;5055873;28;20059;-18
2023/09/23 05:30:00;;;;;;;1.52;0.90;;;;;;;;;;5055761;28;20040;-19
2023/09/23 05:32:26;;;;;;;1.48;1.38;;;;;;;;;;5055944;28;20031;-18
2023/09/23 05:34:54;;;;;;;1.38;0.90;;;;;;;;;;5055641;28;20025;-23
2023/09/23 05:37:22;;;;;;;0.73;0.70;;;;;;;;;;5038120;28;20028;-17
2023/09/23 05:39:48;;;;;;;1.08;0.82;;;;;;;;;;5055811;28;20025;-21
2023/09/23 05:42:15;;;;;;;2.33;1.40;;;;;;;;;;5055790;28;20134;-17
2023/09/23 05:44:42;;;;;;;1.40;1.30;;;;;;;;;;5055409;28;20032;-17
2023/09/23 05:47:09;;;;;;;1.70;1.10;;;;;;;;;;5055397;28;20108;-19
2023/09/23 05:49:35;;;;;;;1.83;1.35;;;;;;;;;;5055364;28;20033;-18
2023/09/23 05:52:01;;;;;;;0.93;0.80;;;;;;;;;;5055279;28;20035;-18
2023/09/23 05:54:27;;;;;;;1.40;1.30;;;;;;;;;;5055345;28;20456;-21
2023/09/23 05:56:53;;;;;;;1.27;0.88;;;;;;;;;;5055210;28;20033;-20
2023/09/23 05:59:19;;;;;;;1.80;0.88;;;;;;;;;;5055201;28;20092;-19
2023/09/23 06:01:46;;;;;;;1.85;1.20;;;;;;;;;;5055059;28;20024;-19
2023/09/23 06:04:13;;;;;;;1.38;1.00;;;;;;;;;;5055021;28;20392;-20
2023/09/23 06:06:39;;;;;;;2.05;0.70;;;;;;;;;;5055031;28;20021;-22
2023/09/23 06:09:08;;;;;;;3.47;2.30;;;;;;;;;;5055277;28;20029;-18
2023/09/23 06:11:34;;;;;;;2.13;1.08;;;;;;;;;;5037476;28;20467;-19
2023/09/23 06:14:00;;;;;;;2.45;1.00;;;;;;;;;;5054934;28;20033;-19
2023/09/23 06:16:27;;;;;;;0.85;0.85;;;;;;;;;;5055456;28;20063;-17
2023/09/23 06:18:53;;;;;;;1.23;0.73;;;;;;;;;;5054892;28;20036;-18
2023/09/23 06:21:19;;;;;;;1.58;0.90;;;;;;;;;;5054793;28;20029;-19
2023/09/23 06:23:46;;;;;;;1.23;1.13;;;;;;;;;;5054715;28;20128;-18
2023/09/23 06:26:12;;;;;;;1.13;0.75;;;;;;;;;;5054419;28;20045;-20
2023/09/23 06:28:38;;;;;;;0.65;0.60;;;;;;;;;;5055054;28;20017;-20
2023/09/23 06:31:07;;;;;;;1.10;0.90;;;;;;;;;;5054979;28;20387;-21
2023/09/23 06:33:33;;;;;;;1.00;0.90;;;;;;;;;;5054625;28;20048;-23
2023/09/23 06:36:04;;;;;;;1.10;1.00;;;;;;;;;;5054910;28;20105;-18
2023/09/23 06:38:31;;;;;;;1.05;0.90;;;;;;;;;;5054604;28;20029;-19
2023/09/23 06:40:57;;;;;;;0.75;0.70;;;;;;;;;;5054439;28;20033;-21
2023/09/23 06:43:23;;;;;;;2.25;1.00;;;;;;;;;;5054503;28;20092;-24
2023/09/23 06:45:56;;;;;;;1.10;1.00;;;;;;;;;;5054831;28;20021;-22
2023/09/23 06:48:22;;;;;;;1.67;0.80;;;;;;;;;;5054485;28;20017;-23
2023/09/23 06:51:01;;;;;;;1.75;0.73;;;;;;;;;;5054748;28;20036;-23
2023/09/23 06:53:28;;;;;;;1.33;1.00;;;;;;;;;;5054650;28;20029;-23
2023/09/23 06:55:54;;;;;;;2.15;0.98;;;;;;;;;;5054452;28;20025;-23
2023/09/23 06:58:20;;;;;;;2.40;0.90;;;;;;;;;;5054428;28;20096;-22
2023/09/23 07:00:46;;;;;;;1.00;0.82;;;;;;;;;;5054529;28;20082;-22
2023/09/23 07:03:13;;;;;;;1.45;1.13;;;;;;;;;;5054093;28;20028;-23
2023/09/23 07:05:39;;;;;;;1.50;1.13;;;;;;;;;;5054631;28;20166;-23
2023/09/23 07:08:06;;;;;;;0.77;0.73;;;;;;;;;;5054311;28;20032;-23
2023/09/23 07:10:35;;;;;;;0.82;0.80;;;;;;;;;;5054327;28;20032;-23
2023/09/23 07:13:03;;;;;;;1.40;1.10;;;;;;;;;;5054133;28;20110;-22
2023/09/23 07:15:30;;;;;;;0.85;0.80;;;;;;;;;;5054229;28;20040;-23
2023/09/23 07:17:57;;;;;;;1.08;0.90;;;;;;;;;;5054150;28;20028;-23
2023/09/23 07:20:23;;;;;;;0.90;0.70;;;;;;;;;;5054057;28;20036;-23
2023/09/23 07:22:49;;;;;;;1.02;0.80;;;;;;;;;;5054395;28;20032;-23
2023/09/23 07:25:15;;;;;;;0.98;0.77;;;;;;;;;;5054180;28;20025;-23
2023/09/23 07:27:42;;;;;;;1.63;0.80;;;;;;;;;;5054664;28;20032;-23
2023/09/23 07:30:08;;;;;;;1.38;0.80;;;;;;;;;;5036536;28;20036;-22
2023/09/23 07:32:34;;;;;;;1.08;0.98;;;;;;;;;;5036439;28;20356;-24
2023/09/23 07:35:00;;;;;;;3.65;1.10;;;;;;;;;;5054079;28;20021;-24
2023/09/23 07:37:26;;;;;;;0.95;0.80;;;;;;;;;;5054063;28;20413;-25
2023/09/23 07:39:52;;;;;;;0.95;0.77;;;;;;;;;;5057013;28;20107;-24
2023/09/23 07:42:18;;;;;;;1.27;1.00;;;;;;;;;;5057713;28;20036;-24
2023/09/23 07:44:44;;;;;;;1.20;1.08;;;;;;;;;;5040211;28;20605;-23
2023/09/23 07:47:11;;;;;;;1.13;0.90;;;;;;;;;;5057662;28;20060;-22
2023/09/23 07:49:38;;;;;;;1.23;0.80;;;;;;;;;;5057948;28;20093;-23
2023/09/23 07:52:05;;;;;;;1.50;1.10;;;;;;;;;;5057468;28;20040;-27
2023/09/23 07:54:31;;;;;;;1.27;1.00;;;;;;;;;;5057891;28;20017;-23
2023/09/23 07:56:57;;;;;;;1.33;1.15;;;;;;;;;;5057562;28;20017;-22
2023/09/23 07:59:23;;;;;;;1.52;1.20;;;;;;;;;;5057790;28;20479;-23
2023/09/23 08:01:49;;;;;;;1.10;1.00;;;;;;;;;;5057288;28;20414;-23
2023/09/23 08:04:15;;;;;;;2.28;1.05;;;;;;;;;;5057236;28;20048;-22
2023/09/23 08:06:41;;;;;;;1.00;0.90;;;;;;;;;;5057427;28;20017;-23
2023/09/23 08:09:09;;;;;;;2.17;0.90;;;;;;;;;;5057622;28;20049;-23
2023/09/23 08:11:35;;;;;;;2.40;1.13;;;;;;;;;;5057581;28;20025;-27
2023/09/23 08:14:01;;;;;;;0.80;0.80;;;;;;;;;;5039600;28;20086;-23
2023/09/23 08:16:27;;;;;;;1.50;0.95;;;;;;;;;;5057225;28;20076;-23
2023/09/23 08:18:54;;;;;;;1.63;0.85;;;;;;;;;;5057257;28;20029;-23
2023/09/23 08:21:20;;;;;;;0.70;0.70;;;;;;;;;;5057091;28;20040;-24
2023/09/23 08:23:46;;;;;;;0.88;0.88;;;;;;;;;;5057248;28;20012;-22
2023/09/23 08:26:12;;;;;;;1.38;0.70;;;;;;;;;;5057344;28;20337;-22
2023/09/23 08:28:39;;;;;;;1.92;1.60;;;;;;;;;;5057315;28;20110;-22
2023/09/23 08:31:05;;;;;;;0.73;0.70;;;;;;;;;;5056834;28;20037;-22
2023/09/23 08:33:32;;;;;;;1.10;1.00;;;;;;;;;;5057163;28;20029;-22
2023/09/23 08:35:58;;;;;;;1.20;0.93;;;;;;;;;;5057107;28;20104;-23
2023/09/23 08:38:24;;;;;;;1.10;0.85;;;;;;;;;;5057116;28;20040;-23
2023/09/23 08:40:51;;;;;;;0.80;0.80;;;;;;;;;;5056982;28;20439;-22
2023/09/23 08:43:18;;;;;;;0.80;0.80;;;;;;;;;;5056906;28;20021;-23
2023/09/23 08:45:45;;;;;;;0.95;0.70;;;;;;;;;;5056945;28;20021;-22
2023/09/23 08:48:13;;;;;;;0.60;0.60;;;;;;;;;;5056645;28;20017;-23
2023/09/23 08:50:43;;;;;;;1.58;0.77;;;;;;;;;;5056574;28;20025;-24
2023/09/23 08:53:09;;;;;;;0.80;0.80;;;;;;;;;;5056744;28;20391;-22
2023/09/23 08:55:36;;;;;;;1.20;1.02;;;;;;;;;;5056487;28;20383;-23
2023/09/23 08:58:04;;;;;;;0.82;0.82;;;;;;;;;;5056446;28;20025;-23
2023/09/23 09:00:30;;;;;;;1.45;0.73;;;;;;;;;;5056551;28;20063;-23
2023/09/23 09:02:57;;;;;;;1.58;1.23;;;;;;;;;;5056297;28;20466;-24
2023/09/23 09:05:23;;;;;;;1.17;0.70;;;;;;;;;;5056169;28;20040;-24
2023/09/23 09:07:50;;;;;;;1.35;1.25;;;;;;;;;;5056277;28;20025;-22
2023/09/23 09:10:17;;;;;;;1.10;0.93;;;;;;;;;;5056224;28;20029;-23
2023/09/23 09:12:43;;;;;;;0.80;0.80;;;;;;;;;;5056345;28;20029;-23
2023/09/23 09:15:10;;;;;;;0.95;0.93;;;;;;;;;;5056387;28;20029;-23
2023/09/23 09:17:36;;;;;;;1.17;0.88;;;;;;;;;;5056363;28;20021;-26
2023/09/23 09:20:08;;;;;;;0.90;0.60;;;;;;;;;;5055946;28;20029;-23
2023/09/23 09:22:36;;;;;;;1.30;1.20;;;;;;;;;;5056236;28;20338;-23
2023/09/23 09:25:04;;;;;;;2.50;0.98;;;;;;;;;;5055883;28;20078;-24
2023/09/23 09:27:30;;;;;;;0.85;0.80;;;;;;;;;;5056147;28;20063;-24
2023/09/23 09:29:56;;;;;;;0.68;0.68;;;;;;;;;;5056106;28;20340;-23
2023/09/23 09:32:29;;;;;;;0.95;0.80;;;;;;;;;;5055763;28;20032;-25
2023/09/23 09:35:00;;;;;;;2.30;1.90;;;;;;;;;;5056259;28;20356;-24
2023/09/23 09:37:27;;;;;;;0.80;0.73;;;;;;;;;;5038192;28;20039;-23
2023/09/23 09:39:57;;;;;;;0.90;0.70;;;;;;;;;;5055586;28;20036;-23
2023/09/23 09:42:33;;;;;;;1.15;1.08;;;;;;;;;;5055524;28;20444;-23
2023/09/23 09:45:00;;;;;;;1.42;1.33;;;;;;;;;;5055799;28;20029;-23
2023/09/23 09:47:29;;;;;;;1.65;1.55;;;;;;;;;;5055517;28;20106;-23
2023/09/23 09:49:56;;;;;;;0.75;0.70;;;;;;;;;;5055721;28;20035;-23
2023/09/23 09:52:23;;;;;;;1.05;0.90;;;;;;;;;;5055628;28;20360;-22
2023/09/23 09:54:54;;;;;;;2.20;0.88;;;;;;;;;;5055340;28;20025;-22
2023/09/23 09:57:23;;;;;;;0.90;0.88;;;;;;;;;;5055657;28;20032;-23
2023/09/23 09:59:51;;;;;;;1.30;0.95;;;;;;;;;;5055218;28;20029;-23
2023/09/23 10:02:17;;;;;;;0.82;0.82;;;;;;;;;;5054665;28;20083;-23
2023/09/23 10:04:49;;;;;;;0.70;0.65;;;;;;;;;;5055457;28;20045;-22
2023/09/23 10:07:16;;;;;;;1.60;1.23;;;;;;;;;;5055112;28;20029;-23
2023/09/23 10:09:53;;;;;;;2.42;1.70;;;;;;;;;;5055348;28;20094;-22
2023/09/23 10:12:21;;;;;;;0.80;0.80;;;;;;;;;;5055237;28;20364;-23
2023/09/23 10:14:54;;;;;;;0.80;0.80;;;;;;;;;;5054909;28;20025;-23
2023/09/23 10:17:21;;;;;;;0.98;0.90;;;;;;;;;;5055248;28;20029;-23
2023/09/23 10:19:55;;;;;;;0.90;0.80;;;;;;;;;;5054866;28;20025;-22
2023/09/23 10:22:23;;;;;;;1.20;0.82;;;;;;;;;;5054755;28;20071;-24
2023/09/23 10:25:08;;;;;;;0.80;0.80;;;;;;;;;;5055124;28;20086;-23
2023/09/23 10:27:38;;;;;;;1.10;0.93;;;;;;;;;;5055129;28;20044;-23
2023/09/23 10:30:06;;;;;;;1.00;0.87;;;;;;;;;;5054774;28;20029;-24
2023/09/23 10:32:32;;;;;;;1.30;0.88;;;;;;;;;;5054691;28;20255;-25
2023/09/23 10:34:59;;;;;;;1.00;0.82;;;;;;;;;;5054942;28;20332;-23
2023/09/23 10:37:30;;;;;;;1.10;0.88;;;;;;;;;;5054699;28;20119;-24
2023/09/23 10:39:57;;;;;;;0.98;0.90;;;;;;;;;;5054615;28;20032;-23
2023/09/23 10:42:23;;;;;;;0.63;0.63;;;;;;;;;;5054440;28;20463;-22
2023/09/23 10:44:49;;;;;;;1.00;0.90;;;;;;;;;;5054839;28;20356;-23
2023/09/23 10:47:16;;;;;;;1.25;0.93;;;;;;;;;;5054484;28;20036;-23
2023/09/23 10:49:42;;;;;;;1.02;0.90;;;;;;;;;;5054778;28;20395;-22
2023/09/23 10:52:08;;;;;;;2.80;1.92;;;;;;;;;;5054448;28;20090;-23
2023/09/23 10:54:34;;;;;;;0.80;0.80;;;;;;;;;;5036955;28;20333;-24
2023/09/23 10:57:01;;;;;;;0.73;0.70;;;;;;;;;;5054444;28;20025;-22
2023/09/23 10:59:28;;;;;;;1.08;0.90;;;;;;;;;;5054360;28;20033;-23
2023/09/23 11:01:57;;;;;;;0.98;0.70;;;;;;;;;;5054491;28;20057;-23
2023/09/23 11:04:24;;;;;;;1.40;0.98;;;;;;;;;;5044282;28;20156;-25
2023/09/23 11:06:50;;;;;;;1.27;0.85;;;;;;;;;;5034456;28;20349;-22
2023/09/23 11:09:20;;;;;;;1.33;0.95;;;;;;;;;;5034417;28;20026;-23
2023/09/23 11:11:46;;;;;;;0.80;0.80;;;;;;;;;;5034665;28;20029;-22
2023/09/23 11:14:13;;;;;;;1.23;1.13;;;;;;;;;;5038294;28;20036;-23
2023/09/23 11:16:46;;;;;;;1.08;0.90;;;;;;;;;;5038407;28;20033;-23
2023/09/23 11:19:12;;;;;;;0.98;0.80;;;;;;;;;;5038629;28;20032;-23
2023/09/23 11:21:46;;;;;;;1.10;1.00;;;;;;;;;;5038537;28;20360;-23
2023/09/23 11:24:12;;;;;;;0.57;0.52;;;;;;;;;;5038165;28;20035;-23
2023/09/23 11:26:41;;;;;;;0.70;0.70;;;;;;;;;;5038229;28;20033;-22
2023/09/23 11:29:08;;;;;;;0.55;0.55;;;;;;;;;;5038436;28;20470;-23
2023/09/23 11:31:34;;;;;;;1.48;0.90;;;;;;;;;;5038154;28;20044;-22
2023/09/23 11:34:02;;;;;;;0.50;0.50;;;;;;;;;;5037803;28;20068;-23
2023/09/23 11:36:28;;;;;;;1.02;0.75;;;;;;;;;;5038333;28;20064;-23
2023/09/23 11:38:54;;;;;;;1.02;0.63;;;;;;;;;;5038279;28;20420;-23
2023/09/23 11:41:20;;;;;;;0.88;0.70;;;;;;;;;;5038140;28;20026;-22
2023/09/23 11:43:50;;;;;;;1.02;0.90;;;;;;;;;;5037829;28;20014;-23
2023/09/23 11:46:19;;;;;;;0.80;0.80;;;;;;;;;;5038119;28;20040;-24
2023/09/23 11:48:48;;;;;;;0.95;0.93;;;;;;;;;;5038060;28;20037;-23
2023/09/23 11:51:14;;;;;;;1.92;1.17;;;;;;;;;;5037825;28;20079;-23
2023/09/23 11:53:41;;;;;;;1.25;1.15;;;;;;;;;;5037690;28;20021;-25
2023/09/23 11:56:07;;;;;;;0.95;0.90;;;;;;;;;;5037693;28;20032;-24
2023/09/23 11:58:33;;;;;;;3.10;1.00;;;;;;;;;;5037623;28;20086;-23
2023/09/23 12:01:02;;;;;;;0.98;0.88;;;;;;;;;;5037549;28;20026;-23
2023/09/23 12:03:28;;;;;;;0.93;0.70;;;;;;;;;;5037381;28;20195;-23
2023/09/23 12:05:54;;;;;;;1.00;0.90;;;;;;;;;;5037823;28;20032;-23
2023/09/23 12:08:20;;;;;;;1.27;0.90;;;;;;;;;;5037536;28;20104;-22
2023/09/23 12:10:46;;;;;;;1.20;0.93;;;;;;;;;;5037685;28;20084;-23
2023/09/23 12:13:13;;;;;;;0.80;0.80;;;;;;;;;;5037269;28;20072;-25
2023/09/23 12:15:40;;;;;;;1.55;1.10;;;;;;;;;;5037630;28;20329;-23
2023/09/23 12:18:06;;;;;;;0.90;0.85;;;;;;;;;;5037258;28;20124;-23
2023/09/23 12:20:32;;;;;;;0.68;0.60;;;;;;;;;;5037451;28;20021;-23
2023/09/23 12:23:00;;;;;;;1.30;0.55;;;;;;;;;;5037155;28;20021;-23
2023/09/23 12:25:26;;;;;;;1.05;0.80;;;;;;;;;;5036451;28;20449;-23
2023/09/23 12:27:52;;;;;;;1.00;0.80;;;;;;;;;;5037414;28;20018;-22
2023/09/23 12:30:19;;;;;;;0.82;0.80;;;;;;;;;;5037101;28;20017;-23
2023/09/23 12:32:45;;;;;;;1.58;1.00;;;;;;;;;;5037193;28;20033;-23
2023/09/23 12:35:12;;;;;;;0.80;0.80;;;;;;;;;;5037288;28;20060;-22
2023/09/23 12:37:38;;;;;;;1.05;0.65;;;;;;;;;;5036989;28;20072;-23
2023/09/23 12:40:06;;;;;;;1.13;0.85;;;;;;;;;;5036893;28;20026;-24
2023/09/23 12:42:33;;;;;;;1.00;0.90;;;;;;;;;;5036958;28;20045;-24
2023/09/23 12:44:59;;;;;;;0.73;0.68;;;;;;;;;;5036803;28;20068;-26
2023/09/23 12:47:25;;;;;;;1.00;0.90;;;;;;;;;;5037058;28;20029;-23
2023/09/23 12:49:51;;;;;;;1.20;1.08;;;;;;;;;;5019260;28;20026;-23
2023/09/23 12:52:18;;;;;;;1.10;0.80;;;;;;;;;;5019173;28;20563;-23
2023/09/23 12:54:45;;;;;;;1.05;0.93;;;;;;;;;;5036867;28;20032;-23
2023/09/23 12:57:13;;;;;;;1.17;0.93;;;;;;;;;;5036528;28;20040;-23
2023/09/23 12:59:39;;;;;;;1.42;1.33;;;;;;;;;;5036481;28;20026;-23
2023/09/23 13:02:05;;;;;;;0.80;0.80;;;;;;;;;;5036350;28;20118;-24
2023/09/23 13:04:31;;;;;;;1.02;0.90;;;;;;;;;;5036516;28;20120;-24
2023/09/23 13:06:57;;;;;;;0.93;0.93;;;;;;;;;;5036379;28;20080;-25
2023/09/23 13:09:23;;;;;;;1.10;0.88;;;;;;;;;;5036890;28;20321;-23
2023/09/23 13:11:49;;;;;;;1.25;1.08;;;;;;;;;;5036496;28;20033;-26
2023/09/23 13:14:16;;;;;;;1.88;1.02;;;;;;;;;;5018808;28;20144;-23
2023/09/23 13:16:43;;;;;;;0.98;0.98;;;;;;;;;;5036229;28;20029;-24
2023/09/23 13:19:09;;;;;;;1.00;0.82;;;;;;;;;;5036088;28;20474;-23
2023/09/23 13:21:35;;;;;;;2.90;1.05;;;;;;;;;;5036288;28;20041;-23
2023/09/23 13:24:01;;;;;;;1.35;1.25;;;;;;;;;;5035999;28;20033;-23
2023/09/23 13:26:27;;;;;;;1.13;1.00;;;;;;;;;;5036062;28;20408;-23
2023/09/23 13:28:53;;;;;;;1.13;1.02;;;;;;;;;;5036211;28;20018;-23
2023/09/23 13:31:20;;;;;;;1.70;1.25;;;;;;;;;;5035840;28;20026;-24
2023/09/23 13:33:46;;;;;;;0.80;0.80;;;;;;;;;;5035728;28;20043;-23
2023/09/23 13:36:12;;;;;;;1.02;1.00;;;;;;;;;;5035135;28;20068;-23
2023/09/23 13:38:38;;;;;;;1.48;1.13;;;;;;;;;;5036070;28;20029;-22
2023/09/23 13:41:05;;;;;;;0.95;0.80;;;;;;;;;;5035896;28;20376;-25
2023/09/23 13:43:31;;;;;;;0.85;0.75;;;;;;;;;;5035616;28;20056;-22
2023/09/23 13:45:57;;;;;;;1.17;1.00;;;;;;;;;;5035891;28;20025;-24
2023/09/23 13:48:23;;;;;;;1.48;1.10;;;;;;;;;;5036151;28;20032;-22
2023/09/23 13:50:49;;;;;;;0.95;0.90;;;;;;;;;;5035811;28;20444;-25
2023/09/23 13:53:15;;;;;;;0.63;0.63;;;;;;;;;;5035542;28;20040;-26
2023/09/23 13:55:41;;;;;;;1.00;1.00;;;;;;;;;;5035454;28;20018;-25
2023/09/23 13:58:14;;;;;;;0.70;0.70;;;;;;;;;;5093020;28;20381;-22
2023/09/23 14:00:40;;;;;;;1.48;0.95;;;;;;;;;;5092219;28;20028;-23
2023/09/23 14:03:06;;;;;;;1.17;1.08;;;;;;;;;;5092047;28;20028;-21
2023/09/23 14:05:32;;;;;;;1.05;0.95;;;;;;;;;;5092374;28;20031;-21
2023/09/23 14:07:59;;;;;;;1.40;0.88;;;;;;;;;;5092289;28;20024;-22
2023/09/23 14:10:25;;;;;;;1.98;0.90;;;;;;;;;;5091980;28;20016;-22
2023/09/23 14:12:51;;;;;;;0.98;0.77;;;;;;;;;;5091855;28;20028;-22
2023/09/23 14:15:18;;;;;;;1.65;1.13;;;;;;;;;;5092439;28;20024;-21
2023/09/23 14:17:46;;;;;;;1.48;1.15;;;;;;;;;;5092020;28;20362;-24
2023/09/23 14:20:12;;;;;;;4.78;1.00;;;;;;;;;;5092042;28;20012;-22
2023/09/23 14:22:39;;;;;;;1.45;0.90;;;;;;;;;;5091919;28;20028;-25
2023/09/23 14:25:05;;;;;;;1.13;1.02;;;;;;;;;;5091664;28;20036;-25
2023/09/23 14:27:32;;;;;;;1.60;0.90;;;;;;;;;;5091661;28;20024;-22
2023/09/23 14:29:58;;;;;;;0.80;0.80;;;;;;;;;;5090652;28;20047;-22
2023/09/23 14:32:24;;;;;;;2.20;0.82;;;;;;;;;;5091496;28;20024;-21
2023/09/23 14:34:50;;;;;;;0.73;0.73;;;;;;;;;;5091427;28;20029;-23
2023/09/23 14:37:16;;;;;;;1.00;0.88;;;;;;;;;;5091390;28;20040;-21
2023/09/23 14:39:42;;;;;;;1.63;1.00;;;;;;;;;;5091410;28;20036;-22
2023/09/23 14:42:09;;;;;;;1.05;0.88;;;;;;;;;;5091320;28;20090;-22